sensor_id;sensor_type;location;lat;lon;timestamp;pressure;altitude;pressure_sealevel;temperature;humidity
62510;BME280;48558;48.242;11.654;2023-02-04T00:00:39;97145.50;;;4.77;100.00
62510;BME280;48558;48.242;11.654;2023-02-04T00:04:52;97137.66;;;4.79;100.00
62510;BME280;48558;48.242;11.654;2023-02-04T00:09:05;97135.25;;;4.84;100.00
62510;BME280;48558;48.242;11.654;2023-02-04T00:13:17;97150.91;;;4.84;100.00
62510;BME280;48558;48.242;11.654;2023-02-04T00:17:30;97169.31;;;4.80;100.00
62510;BME280;48558;48.242;11.654;2023-02-04T00:21:43;97159.94;;;4.81;100.00
62510;BME280;48558;48.242;11.654;2023-02-04T00:25:55;97157.94;;;4.85;100.00
62510;BME280;48558;48.242;11.654;2023-02-04T00:30:08;97179.81;;;4.88;100.00
62510;BME280;48558;48.242;11.654;2023-02-04T00:34:21;97173.94;;;4.90;100.00
62510;BME280;48558;48.242;11.654;2023-02-04T00:38:34;97181.75;;;4.91;100.00
62510;BME280;48558;48.242;11.654;2023-02-04T00:42:46;97186.44;;;4.91;100.00
62510;BME280;48558;48.242;11.654;2023-02-04T00:46:59;97185.63;;;4.94;100.00
62510;BME280;48558;48.242;11.654;2023-02-04T00:51:11;97180.22;;;4.87;100.00
62510;BME280;48558;48.242;11.654;2023-02-04T00:55:24;97194.97;;;5.00;100.00
62510;BME280;48558;48.242;11.654;2023-02-04T00:59:36;97189.13;;;4.98;100.00
62510;BME280;48558;48.242;11.654;2023-02-04T01:03:51;97190.31;;;4.93;100.00
62510;BME280;48558;48.242;11.654;2023-02-04T01:08:04;97214.13;;;5.00;100.00
62510;BME280;48558;48.242;11.654;2023-02-04T01:12:26;97218.50;;;4.94;100.00
62510;BME280;48558;48.242;11.654;2023-02-04T01:16:39;97214.91;;;5.04;100.00
62510;BME280;48558;48.242;11.654;2023-02-04T01:20:52;97213.75;;;4.98;100.00
62510;BME280;48558;48.242;11.654;2023-02-04T01:25:05;97229.78;;;5.03;100.00
62510;BME280;48558;48.242;11.654;2023-02-04T01:29:18;97225.06;;;5.03;100.00
62510;BME280;48558;48.242;11.654;2023-02-04T01:33:31;97229.03;;;4.99;100.00
62510;BME280;48558;48.242;11.654;2023-02-04T01:37:43;97224.59;;;5.12;100.00
62510;BME280;48558;48.242;11.654;2023-02-04T01:41:56;97233.25;;;5.11;100.00
62510;BME280;48558;48.242;11.654;2023-02-04T01:46:09;97253.50;;;5.20;100.00
62510;BME280;48558;48.242;11.654;2023-02-04T01:50:21;97243.38;;;5.14;100.00
62510;BME280;48558;48.242;11.654;2023-02-04T01:54:44;97236.69;;;5.18;100.00
62510;BME280;48558;48.242;11.654;2023-02-04T01:58:57;97248.00;;;5.24;100.00
62510;BME280;48558;48.242;11.654;2023-02-04T02:03:10;97253.09;;;5.22;100.00
62510;BME280;48558;48.242;11.654;2023-02-04T02:07:23;97262.91;;;5.19;100.00
62510;BME280;48558;48.242;11.654;2023-02-04T02:11:36;97263.75;;;5.13;100.00
62510;BME280;48558;48.242;11.654;2023-02-04T02:15:48;97263.75;;;5.09;100.00
62510;BME280;48558;48.242;11.654;2023-02-04T02:20:01;97281.72;;;5.17;100.00
62510;BME280;48558;48.242;11.654;2023-02-04T02:24:29;97274.72;;;5.13;100.00
62510;BME280;48558;48.242;11.654;2023-02-04T02:28:44;97275.13;;;5.11;100.00
62510;BME280;48558;48.242;11.654;2023-02-04T02:32:58;97290.03;;;5.06;100.00
62510;BME280;48558;48.242;11.654;2023-02-04T02:37:21;97288.03;;;5.07;100.00
62510;BME280;48558;48.242;11.654;2023-02-04T02:41:33;97287.66;;;5.05;100.00
62510;BME280;48558;48.242;11.654;2023-02-04T02:45:47;97278.31;;;4.99;100.00
62510;BME280;48558;48.242;11.654;2023-02-04T02:50:00;97300.63;;;5.01;100.00
62510;BME280;48558;48.242;11.654;2023-02-04T02:54:24;97296.25;;;5.07;100.00
62510;BME280;48558;48.242;11.654;2023-02-04T02:58:38;97305.22;;;5.15;100.00
62510;BME280;48558;48.242;11.654;2023-02-04T03:03:05;97290.03;;;5.03;100.00
62510;BME280;48558;48.242;11.654;2023-02-04T03:07:22;97301.69;;;5.14;100.00
62510;BME280;48558;48.242;11.654;2023-02-04T03:11:35;97315.47;;;5.00;100.00
62510;BME280;48558;48.242;11.654;2023-02-04T03:15:48;97326.50;;;4.89;100.00
62510;BME280;48558;48.242;11.654;2023-02-04T03:20:02;97344.88;;;3.99;100.00
62510;BME280;48558;48.242;11.654;2023-02-04T03:24:15;97351.56;;;3.66;100.00
62510;BME280;48558;48.242;11.654;2023-02-04T03:28:39;97351.97;;;3.43;100.00
62510;BME280;48558;48.242;11.654;2023-02-04T03:32:53;97341.81;;;3.30;100.00
62510;BME280;48558;48.242;11.654;2023-02-04T03:37:07;97370.28;;;3.39;100.00
62510;BME280;48558;48.242;11.654;2023-02-04T03:41:19;97372.66;;;3.41;100.00
62510;BME280;48558;48.242;11.654;2023-02-04T03:45:32;97378.47;;;3.46;100.00
62510;BME280;48558;48.242;11.654;2023-02-04T03:50:05;97394.91;;;3.50;100.00
62510;BME280;48558;48.242;11.654;2023-02-04T03:54:18;97408.94;;;3.52;100.00
62510;BME280;48558;48.242;11.654;2023-02-04T03:58:30;97409.72;;;3.56;100.00
62510;BME280;48558;48.242;11.654;2023-02-04T04:02:43;97408.16;;;3.83;100.00
62510;BME280;48558;48.242;11.654;2023-02-04T04:06:55;97392.53;;;4.01;100.00
62510;BME280;48558;48.242;11.654;2023-02-04T04:11:08;97389.41;;;4.06;100.00
62510;BME280;48558;48.242;11.654;2023-02-04T04:15:20;97388.56;;;4.34;100.00
62510;BME280;48558;48.242;11.654;2023-02-04T04:19:33;97400.28;;;4.27;100.00
62510;BME280;48558;48.242;11.654;2023-02-04T04:23:46;97405.72;;;4.38;100.00
62510;BME280;48558;48.242;11.654;2023-02-04T04:27:58;97395.59;;;4.24;100.00
62510;BME280;48558;48.242;11.654;2023-02-04T04:32:11;97402.66;;;4.15;100.00
62510;BME280;48558;48.242;11.654;2023-02-04T04:36:23;97404.63;;;4.11;100.00
62510;BME280;48558;48.242;11.654;2023-02-04T04:40:36;97404.25;;;4.02;100.00
62510;BME280;48558;48.242;11.654;2023-02-04T04:44:48;97410.09;;;4.11;100.00
62510;BME280;48558;48.242;11.654;2023-02-04T04:49:01;97419.03;;;4.25;100.00
62510;BME280;48558;48.242;11.654;2023-02-04T04:53:13;97421.41;;;4.27;100.00
62510;BME280;48558;48.242;11.654;2023-02-04T04:57:26;97426.06;;;4.30;100.00
62510;BME280;48558;48.242;11.654;2023-02-04T05:01:38;97450.69;;;4.37;100.00
62510;BME280;48558;48.242;11.654;2023-02-04T05:05:51;97449.50;;;4.34;100.00
62510;BME280;48558;48.242;11.654;2023-02-04T05:10:04;97441.66;;;4.51;100.00
62510;BME280;48558;48.242;11.654;2023-02-04T05:14:18;97447.97;;;4.26;100.00
62510;BME280;48558;48.242;11.654;2023-02-04T05:18:40;97453.47;;;4.16;100.00
62510;BME280;48558;48.242;11.654;2023-02-04T05:22:53;97447.22;;;4.01;100.00
62510;BME280;48558;48.242;11.654;2023-02-04T05:27:17;97469.50;;;4.07;100.00
62510;BME280;48558;48.242;11.654;2023-02-04T05:31:39;97478.47;;;4.00;100.00
62510;BME280;48558;48.242;11.654;2023-02-04T05:35:52;97490.97;;;4.08;100.00
62510;BME280;48558;48.242;11.654;2023-02-04T05:40:05;97488.25;;;4.08;100.00
62510;BME280;48558;48.242;11.654;2023-02-04T05:44:18;97495.66;;;4.08;100.00
62510;BME280;48558;48.242;11.654;2023-02-04T05:48:40;97508.56;;;4.11;100.00
62510;BME280;48558;48.242;11.654;2023-02-04T05:52:53;97510.13;;;4.08;100.00
62510;BME280;48558;48.242;11.654;2023-02-04T05:57:05;97530.84;;;4.02;100.00
62510;BME280;48558;48.242;11.654;2023-02-04T06:01:18;97530.03;;;4.05;100.00
62510;BME280;48558;48.242;11.654;2023-02-04T06:05:31;97544.09;;;4.07;100.00
62510;BME280;48558;48.242;11.654;2023-02-04T06:09:43;97539.81;;;4.13;100.00
62510;BME280;48558;48.242;11.654;2023-02-04T06:13:56;97556.22;;;4.03;100.00
62510;BME280;48558;48.242;11.654;2023-02-04T06:18:08;97568.72;;;4.00;100.00
62510;BME280;48558;48.242;11.654;2023-02-04T06:22:21;97561.28;;;4.01;100.00
62510;BME280;48558;48.242;11.654;2023-02-04T06:26:35;97574.16;;;4.00;100.00
62510;BME280;48558;48.242;11.654;2023-02-04T06:30:48;97582.00;;;4.12;100.00
62510;BME280;48558;48.242;11.654;2023-02-04T06:35:00;97574.19;;;3.93;100.00
62510;BME280;48558;48.242;11.654;2023-02-04T06:39:13;97585.13;;;4.07;100.00
62510;BME280;48558;48.242;11.654;2023-02-04T06:43:35;97583.97;;;4.08;100.00
62510;BME280;48558;48.242;11.654;2023-02-04T06:47:48;97580.84;;;4.10;100.00
62510;BME280;48558;48.242;11.654;2023-02-04T06:52:00;97576.94;;;4.18;100.00
62510;BME280;48558;48.242;11.654;2023-02-04T06:56:13;97578.13;;;4.24;100.00
62510;BME280;48558;48.242;11.654;2023-02-04T07:00:25;97588.69;;;4.22;100.00
62510;BME280;48558;48.242;11.654;2023-02-04T07:04:38;97587.50;;;4.16;100.00
62510;BME280;48558;48.242;11.654;2023-02-04T07:08:50;97593.75;;;4.23;100.00
62510;BME280;48558;48.242;11.654;2023-02-04T07:13:13;97597.66;;;4.22;100.00
62510;BME280;48558;48.242;11.654;2023-02-04T07:17:25;97609.41;;;4.33;100.00
62510;BME280;48558;48.242;11.654;2023-02-04T07:21:39;97625.44;;;4.39;100.00
62510;BME280;48558;48.242;11.654;2023-02-04T07:25:51;97626.63;;;4.34;100.00
62510;BME280;48558;48.242;11.654;2023-02-04T07:30:10;97632.47;;;4.54;100.00
62510;BME280;48558;48.242;11.654;2023-02-04T07:34:23;97643.41;;;4.47;100.00
62510;BME280;48558;48.242;11.654;2023-02-04T07:38:36;97641.88;;;4.39;100.00
62510;BME280;48558;48.242;11.654;2023-02-04T07:42:48;97640.28;;;4.30;100.00
62510;BME280;48558;48.242;11.654;2023-02-04T07:47:03;97659.47;;;4.52;100.00
62510;BME280;48558;48.242;11.654;2023-02-04T07:51:15;97664.16;;;4.48;100.00
62510;BME280;48558;48.242;11.654;2023-02-04T07:55:28;97673.53;;;4.43;100.00
62510;BME280;48558;48.242;11.654;2023-02-04T07:59:40;97676.63;;;4.34;100.00
62510;BME280;48558;48.242;11.654;2023-02-04T08:03:53;97673.50;;;4.32;100.00
62510;BME280;48558;48.242;11.654;2023-02-04T08:08:05;97684.47;;;4.40;100.00
62510;BME280;48558;48.242;11.654;2023-02-04T08:12:18;97687.97;;;4.22;100.00
62510;BME280;48558;48.242;11.654;2023-02-04T08:16:30;97698.81;;;4.05;100.00
62510;BME280;48558;48.242;11.654;2023-02-04T08:20:43;97706.69;;;4.17;100.00
62510;BME280;48558;48.242;11.654;2023-02-04T08:24:55;97701.81;;;3.72;100.00
62510;BME280;48558;48.242;11.654;2023-02-04T08:29:08;97719.53;;;3.95;100.00
62510;BME280;48558;48.242;11.654;2023-02-04T08:33:21;97718.41;;;4.17;100.00
62510;BME280;48558;48.242;11.654;2023-02-04T08:37:33;97731.75;;;4.33;100.00
62510;BME280;48558;48.242;11.654;2023-02-04T08:41:46;97741.94;;;4.47;100.00
62510;BME280;48558;48.242;11.654;2023-02-04T08:46:00;97743.56;;;4.69;100.00
62510;BME280;48558;48.242;11.654;2023-02-04T08:50:12;97748.66;;;4.91;100.00
62510;BME280;48558;48.242;11.654;2023-02-04T08:54:25;97743.56;;;4.93;100.00
62510;BME280;48558;48.242;11.654;2023-02-04T08:58:37;97743.19;;;5.09;100.00
62510;BME280;48558;48.242;11.654;2023-02-04T09:02:50;97754.53;;;4.86;100.00
62510;BME280;48558;48.242;11.654;2023-02-04T09:07:03;97749.84;;;5.12;100.00
62510;BME280;48558;48.242;11.654;2023-02-04T09:11:15;97747.50;;;5.24;100.00
62510;BME280;48558;48.242;11.654;2023-02-04T09:15:28;97749.06;;;5.18;100.00
62510;BME280;48558;48.242;11.654;2023-02-04T09:19:40;97754.16;;;5.20;100.00
62510;BME280;48558;48.242;11.654;2023-02-04T09:23:53;97772.56;;;5.19;100.00
62510;BME280;48558;48.242;11.654;2023-02-04T09:28:06;97774.09;;;4.85;100.00
62510;BME280;48558;48.242;11.654;2023-02-04T09:32:23;97770.94;;;4.69;100.00
62510;BME280;48558;48.242;11.654;2023-02-04T09:36:35;97783.09;;;4.75;100.00
62510;BME280;48558;48.242;11.654;2023-02-04T09:40:53;97807.28;;;4.52;100.00
62510;BME280;48558;48.242;11.654;2023-02-04T09:45:14;97824.34;;;3.55;100.00
62510;BME280;48558;48.242;11.654;2023-02-04T09:49:29;97824.28;;;3.48;100.00
62510;BME280;48558;48.242;11.654;2023-02-04T09:53:41;97833.59;;;3.44;100.00
62510;BME280;48558;48.242;11.654;2023-02-04T09:57:54;97852.03;;;3.07;100.00
62510;BME280;48558;48.242;11.654;2023-02-04T10:02:24;97851.00;;;2.81;100.00
62510;BME280;48558;48.242;11.654;2023-02-04T10:06:37;97859.78;;;2.64;100.00
62510;BME280;48558;48.242;11.654;2023-02-04T10:10:51;97868.63;;;2.54;100.00
62510;BME280;48558;48.242;11.654;2023-02-04T10:15:04;97863.00;;;2.73;100.00
62510;BME280;48558;48.242;11.654;2023-02-04T10:19:19;97869.69;;;2.79;100.00
62510;BME280;48558;48.242;11.654;2023-02-04T10:23:32;97849.09;;;2.85;100.00
62510;BME280;48558;48.242;11.654;2023-02-04T10:27:51;97868.19;;;2.85;100.00
62510;BME280;48558;48.242;11.654;2023-02-04T10:32:28;97859.88;;;3.12;100.00
62510;BME280;48558;48.242;11.654;2023-02-04T10:36:45;97850.78;;;3.41;100.00
62510;BME280;48558;48.242;11.654;2023-02-04T10:41:03;97862.25;;;3.57;100.00
62510;BME280;48558;48.242;11.654;2023-02-04T10:45:25;97870.25;;;3.36;100.00
62510;BME280;48558;48.242;11.654;2023-02-04T10:54:34;97868.56;;;3.21;100.00
62510;BME280;48558;48.242;11.654;2023-02-04T10:58:49;97868.50;;;3.14;100.00
62510;BME280;48558;48.242;11.654;2023-02-04T11:03:25;97868.25;;;3.33;100.00
62510;BME280;48558;48.242;11.654;2023-02-04T11:07:39;97857.56;;;3.14;100.00
62510;BME280;48558;48.242;11.654;2023-02-04T11:11:52;97862.78;;;3.80;100.00
62510;BME280;48558;48.242;11.654;2023-02-04T11:20:32;97864.72;;;4.45;100.00
62510;BME280;48558;48.242;11.654;2023-02-04T11:24:46;97864.97;;;4.18;100.00
62510;BME280;48558;48.242;11.654;2023-02-04T11:33:37;97851.66;;;4.13;100.00
62510;BME280;48558;48.242;11.654;2023-02-04T11:37:52;97852.34;;;4.79;100.00
62510;BME280;48558;48.242;11.654;2023-02-04T11:42:16;97842.97;;;5.04;100.00
62510;BME280;48558;48.242;11.654;2023-02-04T11:46:34;97856.34;;;5.24;100.00
62510;BME280;48558;48.242;11.654;2023-02-04T11:50:58;97854.00;;;5.22;100.00
62510;BME280;48558;48.242;11.654;2023-02-04T11:59:32;97846.94;;;5.35;100.00
62510;BME280;48558;48.242;11.654;2023-02-04T12:03:47;97843.66;;;4.59;100.00
62510;BME280;48558;48.242;11.654;2023-02-04T12:12:41;97830.47;;;5.63;100.00
62510;BME280;48558;48.242;11.654;2023-02-04T12:17:17;97833.97;;;6.10;100.00
62510;BME280;48558;48.242;11.654;2023-02-04T12:21:31;97831.53;;;7.12;100.00
62510;BME280;48558;48.242;11.654;2023-02-04T12:25:44;97828.91;;;6.95;100.00
62510;BME280;48558;48.242;11.654;2023-02-04T12:29:57;97824.78;;;7.75;100.00
62510;BME280;48558;48.242;11.654;2023-02-04T12:34:09;97827.44;;;7.82;100.00
62510;BME280;48558;48.242;11.654;2023-02-04T12:38:23;97827.22;;;6.39;100.00
62510;BME280;48558;48.242;11.654;2023-02-04T12:42:36;97837.53;;;5.96;100.00
62510;BME280;48558;48.242;11.654;2023-02-04T12:46:59;97834.81;;;5.50;100.00
62510;BME280;48558;48.242;11.654;2023-02-04T12:51:11;97828.56;;;5.29;100.00
62510;BME280;48558;48.242;11.654;2023-02-04T12:55:26;97828.91;;;5.91;100.00
62510;BME280;48558;48.242;11.654;2023-02-04T12:59:39;97821.13;;;5.54;100.00
62510;BME280;48558;48.242;11.654;2023-02-04T13:03:52;97817.19;;;5.34;100.00
62510;BME280;48558;48.242;11.654;2023-02-04T13:08:05;97821.06;;;5.04;100.00
62510;BME280;48558;48.242;11.654;2023-02-04T13:12:17;97819.53;;;5.60;100.00
62510;BME280;48558;48.242;11.654;2023-02-04T13:16:34;97828.16;;;5.30;100.00
62510;BME280;48558;48.242;11.654;2023-02-04T13:20:47;97828.91;;;5.02;100.00
62510;BME280;48558;48.242;11.654;2023-02-04T13:25:05;97835.16;;;4.92;100.00
62510;BME280;48558;48.242;11.654;2023-02-04T13:29:18;97846.84;;;4.79;100.00
62510;BME280;48558;48.242;11.654;2023-02-04T13:33:31;97851.97;;;4.98;100.00
62510;BME280;48558;48.242;11.654;2023-02-04T13:37:44;97845.75;;;5.12;100.00
62510;BME280;48558;48.242;11.654;2023-02-04T13:41:56;97857.13;;;5.35;100.00
62510;BME280;48558;48.242;11.654;2023-02-04T13:46:09;97857.91;;;5.21;100.00
62510;BME280;48558;48.242;11.654;2023-02-04T13:50:21;97865.72;;;5.12;100.00
62510;BME280;48558;48.242;11.654;2023-02-04T13:54:34;97877.50;;;5.27;100.00
62510;BME280;48558;48.242;11.654;2023-02-04T13:58:52;97890.31;;;4.84;100.00
62510;BME280;48558;48.242;11.654;2023-02-04T14:03:04;97889.00;;;4.53;100.00
62510;BME280;48558;48.242;11.654;2023-02-04T14:07:17;97895.31;;;4.68;100.00
62510;BME280;48558;48.242;11.654;2023-02-04T14:11:29;97894.66;;;4.99;100.00
62510;BME280;48558;48.242;11.654;2023-02-04T14:15:42;97895.03;;;5.01;100.00
62510;BME280;48558;48.242;11.654;2023-02-04T14:19:54;97897.38;;;4.99;100.00
62510;BME280;48558;48.242;11.654;2023-02-04T14:24:17;97906.78;;;5.05;100.00
62510;BME280;48558;48.242;11.654;2023-02-04T14:28:29;97892.56;;;4.61;100.00
62510;BME280;48558;48.242;11.654;2023-02-04T14:32:51;97904.59;;;4.46;100.00
62510;BME280;48558;48.242;11.654;2023-02-04T14:37:04;97902.25;;;4.44;100.00
62510;BME280;48558;48.242;11.654;2023-02-04T14:41:17;97899.69;;;4.07;100.00
62510;BME280;48558;48.242;11.654;2023-02-04T14:45:32;97908.22;;;3.95;100.00
62510;BME280;48558;48.242;11.654;2023-02-04T14:49:55;97889.41;;;3.90;100.00
62510;BME280;48558;48.242;11.654;2023-02-04T14:54:07;97900.88;;;4.06;100.00
62510;BME280;48558;48.242;11.654;2023-02-04T14:58:20;97909.97;;;4.24;100.00
62510;BME280;48558;48.242;11.654;2023-02-04T15:02:33;97907.22;;;4.24;100.00
62510;BME280;48558;48.242;11.654;2023-02-04T15:06:45;97919.78;;;4.32;100.00
62510;BME280;48558;48.242;11.654;2023-02-04T15:10:58;97917.78;;;4.26;100.00
62510;BME280;48558;48.242;11.654;2023-02-04T15:15:11;97918.94;;;4.21;100.00
62510;BME280;48558;48.242;11.654;2023-02-04T15:19:23;97915.16;;;3.86;100.00
62510;BME280;48558;48.242;11.654;2023-02-04T15:23:36;97923.78;;;3.88;100.00
62510;BME280;48558;48.242;11.654;2023-02-04T15:27:49;97932.31;;;3.79;100.00
62510;BME280;48558;48.242;11.654;2023-02-04T15:32:01;97931.47;;;3.72;100.00
62510;BME280;48558;48.242;11.654;2023-02-04T15:36:22;97953.38;;;3.75;100.00
62510;BME280;48558;48.242;11.654;2023-02-04T15:40:35;97952.59;;;3.75;100.00
62510;BME280;48558;48.242;11.654;2023-02-04T15:44:47;97958.31;;;3.59;100.00
62510;BME280;48558;48.242;11.654;2023-02-04T15:49:00;97949.22;;;3.48;100.00
62510;BME280;48558;48.242;11.654;2023-02-04T15:53:13;97962.25;;;3.25;100.00
62510;BME280;48558;48.242;11.654;2023-02-04T15:57:26;97969.97;;;3.19;100.00
62510;BME280;48558;48.242;11.654;2023-02-04T16:01:38;97970.09;;;2.93;100.00
62510;BME280;48558;48.242;11.654;2023-02-04T16:05:51;97970.72;;;2.83;100.00
62510;BME280;48558;48.242;11.654;2023-02-04T16:10:04;97986.28;;;2.79;100.00
62510;BME280;48558;48.242;11.654;2023-02-04T16:14:18;97978.41;;;2.74;100.00
62510;BME280;48558;48.242;11.654;2023-02-04T16:18:30;97975.88;;;2.58;100.00
62510;BME280;48558;48.242;11.654;2023-02-04T16:22:53;97984.59;;;2.41;100.00
62510;BME280;48558;48.242;11.654;2023-02-04T16:27:05;97991.53;;;2.35;100.00
62510;BME280;48558;48.242;11.654;2023-02-04T16:31:18;97991.31;;;2.21;100.00
62510;BME280;48558;48.242;11.654;2023-02-04T16:35:31;98000.16;;;2.37;100.00
62510;BME280;48558;48.242;11.654;2023-02-04T16:39:54;98010.56;;;2.58;100.00
62510;BME280;48558;48.242;11.654;2023-02-04T16:44:07;98021.63;;;2.68;100.00
62510;BME280;48558;48.242;11.654;2023-02-04T16:48:19;98031.38;;;2.69;100.00
62510;BME280;48558;48.242;11.654;2023-02-04T16:52:42;98002.16;;;2.70;100.00
62510;BME280;48558;48.242;11.654;2023-02-04T16:56:55;98023.28;;;2.76;100.00
62510;BME280;48558;48.242;11.654;2023-02-04T17:01:08;98038.53;;;2.77;100.00
62510;BME280;48558;48.242;11.654;2023-02-04T17:05:30;98047.03;;;2.72;100.00
62510;BME280;48558;48.242;11.654;2023-02-04T17:09:43;98044.63;;;2.67;100.00
62510;BME280;48558;48.242;11.654;2023-02-04T17:14:08;98050.91;;;2.71;100.00
62510;BME280;48558;48.242;11.654;2023-02-04T17:18:23;98044.25;;;2.69;100.00
62510;BME280;48558;48.242;11.654;2023-02-04T17:22:35;98043.91;;;2.74;100.00
62510;BME280;48558;48.242;11.654;2023-02-04T17:26:49;98050.38;;;2.62;100.00
62510;BME280;48558;48.242;11.654;2023-02-04T17:31:01;98056.75;;;2.70;100.00
62510;BME280;48558;48.242;11.654;2023-02-04T17:35:14;98048.19;;;2.45;100.00
62510;BME280;48558;48.242;11.654;2023-02-04T17:39:38;98039.91;;;2.38;100.00
62510;BME280;48558;48.242;11.654;2023-02-04T17:43:50;98050.50;;;2.17;100.00
62510;BME280;48558;48.242;11.654;2023-02-04T17:48:13;98076.16;;;2.16;100.00
62510;BME280;48558;48.242;11.654;2023-02-04T17:52:36;98066.19;;;2.01;100.00
62510;BME280;48558;48.242;11.654;2023-02-04T17:56:49;98045.38;;;1.93;100.00
62510;BME280;48558;48.242;11.654;2023-02-04T18:01:09;98073.81;;;1.92;100.00
62510;BME280;48558;48.242;11.654;2023-02-04T18:05:26;98072.50;;;1.63;100.00
62510;BME280;48558;48.242;11.654;2023-02-04T18:09:39;98070.81;;;1.55;100.00
62510;BME280;48558;48.242;11.654;2023-02-04T18:13:59;98084.22;;;1.44;100.00
62510;BME280;48558;48.242;11.654;2023-02-04T18:18:22;98073.94;;;1.38;100.00
62510;BME280;48558;48.242;11.654;2023-02-04T18:22:49;98075.03;;;1.14;100.00
62510;BME280;48558;48.242;11.654;2023-02-04T18:31:35;98067.28;;;0.78;100.00
62510;BME280;48558;48.242;11.654;2023-02-04T18:35:55;98071.09;;;0.58;100.00
62510;BME280;48558;48.242;11.654;2023-02-04T18:44:36;98071.16;;;0.27;100.00
62510;BME280;48558;48.242;11.654;2023-02-04T18:53:23;98087.38;;;0.08;100.00
62510;BME280;48558;48.242;11.654;2023-02-04T18:57:47;98078.53;;;-0.05;100.00
62510;BME280;48558;48.242;11.654;2023-02-04T19:01:59;98063.53;;;-0.30;100.00
62510;BME280;48558;48.242;11.654;2023-02-04T19:06:28;98096.00;;;-0.34;100.00
62510;BME280;48558;48.242;11.654;2023-02-04T19:10:47;98078.81;;;-0.53;100.00
62510;BME280;48558;48.242;11.654;2023-02-04T19:15:00;98087.38;;;-0.51;100.00
62510;BME280;48558;48.242;11.654;2023-02-04T19:19:34;98093.06;;;-0.56;100.00
62510;BME280;48558;48.242;11.654;2023-02-04T19:23:48;98093.81;;;-0.72;100.00
62510;BME280;48558;48.242;11.654;2023-02-04T19:28:25;98089.84;;;-0.74;100.00
62510;BME280;48558;48.242;11.654;2023-02-04T19:32:48;98080.75;;;-0.82;100.00
62510;BME280;48558;48.242;11.654;2023-02-04T19:37:37;98092.56;;;-0.74;100.00
62510;BME280;48558;48.242;11.654;2023-02-04T19:41:51;98095.44;;;-0.83;100.00
62510;BME280;48558;48.242;11.654;2023-02-04T19:46:19;98083.63;;;-1.02;100.00
62510;BME280;48558;48.242;11.654;2023-02-04T19:50:43;98088.34;;;-0.99;100.00
62510;BME280;48558;48.242;11.654;2023-02-04T19:59:34;98098.69;;;-1.17;100.00
62510;BME280;48558;48.242;11.654;2023-02-04T20:03:48;98098.16;;;-1.22;100.00
62510;BME280;48558;48.242;11.654;2023-02-04T20:08:36;98102.66;;;-1.26;100.00
62510;BME280;48558;48.242;11.654;2023-02-04T20:13:09;98081.81;;;-1.38;100.00
62510;BME280;48558;48.242;11.654;2023-02-04T20:17:38;98089.09;;;-1.26;100.00
62510;BME280;48558;48.242;11.654;2023-02-04T20:26:29;98110.56;;;-1.09;100.00
62510;BME280;48558;48.242;11.654;2023-02-04T20:30:43;98106.59;;;-1.00;100.00
62510;BME280;48558;48.242;11.654;2023-02-04T20:39:32;98110.47;;;-0.85;100.00
62510;BME280;48558;48.242;11.654;2023-02-04T20:43:48;98120.44;;;-0.89;100.00
62510;BME280;48558;48.242;11.654;2023-02-04T20:57:09;98111.63;;;-0.86;100.00
62510;BME280;48558;48.242;11.654;2023-02-04T21:01:32;98114.34;;;-0.86;100.00
62510;BME280;48558;48.242;11.654;2023-02-04T21:05:47;98132.88;;;-0.88;100.00
62510;BME280;48558;48.242;11.654;2023-02-04T21:10:00;98143.63;;;-0.92;100.00
62510;BME280;48558;48.242;11.654;2023-02-04T21:14:21;98141.94;;;-0.84;100.00
62510;BME280;48558;48.242;11.654;2023-02-04T21:18:35;98135.34;;;-0.83;100.00
62510;BME280;48558;48.242;11.654;2023-02-04T21:22:49;98149.38;;;-0.81;100.00
62510;BME280;48558;48.242;11.654;2023-02-04T21:27:01;98153.44;;;-0.75;100.00
62510;BME280;48558;48.242;11.654;2023-02-04T21:31:23;98146.63;;;-0.69;100.00
62510;BME280;48558;48.242;11.654;2023-02-04T21:35:37;98161.84;;;-0.52;100.00
62510;BME280;48558;48.242;11.654;2023-02-04T21:39:50;98146.78;;;-0.50;100.00
62510;BME280;48558;48.242;11.654;2023-02-04T21:44:03;98160.75;;;-0.36;100.00
62510;BME280;48558;48.242;11.654;2023-02-04T21:48:15;98143.03;;;-0.45;100.00
62510;BME280;48558;48.242;11.654;2023-02-04T21:52:28;98149.41;;;-0.53;100.00
62510;BME280;48558;48.242;11.654;2023-02-04T21:56:40;98135.81;;;-0.53;100.00
62510;BME280;48558;48.242;11.654;2023-02-04T22:00:53;98153.22;;;-0.27;100.00
62510;BME280;48558;48.242;11.654;2023-02-04T22:05:06;98166.56;;;-0.22;100.00
62510;BME280;48558;48.242;11.654;2023-02-04T22:09:19;98152.34;;;-0.31;100.00
62510;BME280;48558;48.242;11.654;2023-02-04T22:13:32;98155.94;;;-0.27;100.00
62510;BME280;48558;48.242;11.654;2023-02-04T22:17:44;98153.41;;;-0.35;100.00
62510;BME280;48558;48.242;11.654;2023-02-04T22:21:57;98166.19;;;-0.36;100.00
62510;BME280;48558;48.242;11.654;2023-02-04T22:26:09;98163.03;;;-0.38;100.00
62510;BME280;48558;48.242;11.654;2023-02-04T22:30:22;98165.50;;;-0.33;100.00
62510;BME280;48558;48.242;11.654;2023-02-04T22:34:35;98187.13;;;-0.36;100.00
62510;BME280;48558;48.242;11.654;2023-02-04T22:38:47;98174.72;;;-0.49;100.00
62510;BME280;48558;48.242;11.654;2023-02-04T22:43:04;98167.16;;;-0.56;100.00
62510;BME280;48558;48.242;11.654;2023-02-04T22:47:17;98165.63;;;-0.69;100.00
62510;BME280;48558;48.242;11.654;2023-02-04T22:51:31;98155.59;;;-0.81;100.00
62510;BME280;48558;48.242;11.654;2023-02-04T22:55:44;98156.75;;;-0.94;100.00
62510;BME280;48558;48.242;11.654;2023-02-04T22:59:56;98167.25;;;-0.92;100.00
62510;BME280;48558;48.242;11.654;2023-02-04T23:04:09;98152.81;;;-0.96;100.00
62510;BME280;48558;48.242;11.654;2023-02-04T23:08:31;98145.75;;;-0.85;100.00